createdAt,value
2018-12-25T00:00:15.979Z,3.40
2018-12-25T00:02:51.060Z,3.30
2018-12-25T00:05:27.590Z,3.30
2018-12-25T00:08:01.389Z,3.40
2018-12-25T00:10:39.476Z,3.40
2018-12-25T00:13:13.689Z,3.40
2018-12-25T00:15:47.563Z,3.30
2018-12-25T00:18:25.336Z,3.30
2018-12-25T00:21:05.790Z,3.30
2018-12-25T00:23:40.962Z,3.30
2018-12-25T00:26:15.590Z,3.30
2018-12-25T00:28:51.566Z,3.40
2018-12-25T00:31:26.612Z,3.50
2018-12-25T00:34:01.055Z,3.50
2018-12-25T00:36:35.788Z,3.50
2018-12-25T00:39:10.261Z,3.50
2018-12-25T00:41:52.825Z,3.50
2018-12-25T00:44:29.358Z,3.50
2018-12-25T00:47:07.680Z,3.50
2018-12-25T00:49:45.966Z,3.40
2018-12-25T00:52:23.513Z,3.40
2018-12-25T00:54:58.910Z,3.30
2018-12-25T00:57:37.081Z,3.20
2018-12-25T01:00:12.396Z,3.20
2018-12-25T01:02:49.413Z,3.20
2018-12-25T01:05:29.297Z,3.10
2018-12-25T01:08:05.766Z,3.30
2018-12-25T01:10:40.826Z,3.30
2018-12-25T01:13:16.185Z,3.30
2018-12-25T01:15:51.496Z,3.30
2018-12-25T01:18:26.261Z,3.30
2018-12-25T01:21:01.555Z,3.20
2018-12-25T01:23:37.727Z,3.20
2018-12-25T01:26:17.566Z,3.20
2018-12-25T01:28:52.188Z,3.30
2018-12-25T01:31:27.325Z,3.40
2018-12-25T01:34:03.278Z,3.40
2018-12-25T01:36:38.931Z,3.30
2018-12-25T01:39:13.895Z,3.30
2018-12-25T01:41:49.462Z,3.30
2018-12-25T01:44:25.201Z,3.20
2018-12-25T01:46:59.532Z,3.20
2018-12-25T01:49:35.344Z,3.30
2018-12-25T01:52:10.899Z,3.40
2018-12-25T01:54:46.418Z,3.50
2018-12-25T01:57:24.277Z,3.60
2018-12-25T02:00:00.741Z,3.70
2018-12-25T02:02:36.985Z,3.70
2018-12-25T02:05:11.943Z,3.70
2018-12-25T02:07:46.899Z,3.70
2018-12-25T02:10:21.802Z,3.60
2018-12-25T02:12:56.677Z,3.60
2018-12-25T02:15:34.695Z,3.60
2018-12-25T02:18:10.879Z,3.60
2018-12-25T02:20:46.462Z,3.60
2018-12-25T02:23:22.399Z,3.60
2018-12-25T02:25:57.926Z,3.50
2018-12-25T02:28:32.269Z,3.70
2018-12-25T02:31:07.249Z,3.70
2018-12-25T02:33:42.731Z,3.80
2018-12-25T02:36:18.863Z,3.70
2018-12-25T02:38:53.327Z,3.80
2018-12-25T02:41:28.292Z,3.80
2018-12-25T02:44:06.374Z,3.80
2018-12-25T02:46:41.816Z,3.80
2018-12-25T02:49:18.316Z,3.80
2018-12-25T02:51:52.993Z,3.70
2018-12-25T02:54:29.985Z,3.70
2018-12-25T02:57:04.815Z,3.80
2018-12-25T02:59:40.093Z,3.80
2018-12-25T03:02:15.001Z,3.90
2018-12-25T03:04:53.650Z,3.90
2018-12-25T03:07:28.377Z,3.90
2018-12-25T03:10:03.997Z,3.90
2018-12-25T03:12:43.272Z,3.90
2018-12-25T03:15:17.964Z,3.90
2018-12-25T03:17:53.198Z,3.90
2018-12-25T03:20:28.623Z,3.90
2018-12-25T03:23:03.460Z,4.00
2018-12-25T03:25:37.900Z,4.00
2018-12-25T03:28:13.685Z,4.00
2018-12-25T03:30:48.607Z,4.00
2018-12-25T03:33:23.706Z,4.00
2018-12-25T03:35:58.435Z,4.00
2018-12-25T03:38:33.057Z,3.90
2018-12-25T03:41:07.846Z,4.00
2018-12-25T03:43:45.920Z,4.00
2018-12-25T03:46:20.439Z,4.00
2018-12-25T03:48:55.097Z,4.00
2018-12-25T03:51:30.197Z,4.00
2018-12-25T03:54:06.279Z,4.00
2018-12-25T03:56:41.656Z,4.00
2018-12-25T03:59:17.212Z,4.00
2018-12-25T04:01:54.429Z,3.90
2018-12-25T04:04:29.420Z,3.90
2018-12-25T04:07:06.297Z,4.00
2018-12-25T04:09:41.041Z,4.00
2018-12-25T04:12:16.011Z,4.00
2018-12-25T04:14:51.790Z,4.00
2018-12-25T04:17:28.057Z,4.00
2018-12-25T04:20:03.137Z,4.00
2018-12-25T04:22:37.806Z,4.00
2018-12-25T04:25:12.701Z,4.10
2018-12-25T04:27:47.431Z,4.10
2018-12-25T04:30:22.112Z,4.10
2018-12-25T04:32:56.370Z,4.10
2018-12-25T04:35:31.383Z,4.10
2018-12-25T04:38:06.792Z,4.00
2018-12-25T04:40:42.872Z,4.00
2018-12-25T04:43:17.739Z,4.00
2018-12-25T04:45:53.372Z,4.00
2018-12-25T04:48:31.409Z,4.00
2018-12-25T04:51:06.769Z,4.10
2018-12-25T04:53:41.743Z,4.10
2018-12-25T04:56:16.380Z,4.10
2018-12-25T04:58:51.403Z,4.10
2018-12-25T05:01:26.337Z,4.10
2018-12-25T05:04:01.712Z,4.10
2018-12-25T05:06:36.915Z,4.10
2018-12-25T05:09:12.885Z,4.10
2018-12-25T05:11:48.900Z,4.10
2018-12-25T05:14:23.746Z,4.10
2018-12-25T05:16:58.289Z,4.10
2018-12-25T05:19:33.666Z,4.20
2018-12-25T05:22:08.526Z,4.20
2018-12-25T05:24:45.219Z,4.20
2018-12-25T05:27:23.030Z,4.20
2018-12-25T05:30:00.020Z,4.10
2018-12-25T05:32:34.609Z,4.10
2018-12-25T05:35:10.009Z,4.00
2018-12-25T05:37:44.219Z,4.00
2018-12-25T05:40:19.870Z,4.00
2018-12-25T05:42:55.391Z,4.20
2018-12-25T05:45:30.356Z,4.20
2018-12-25T05:48:05.784Z,4.20
2018-12-25T05:50:46.561Z,4.20
2018-12-25T05:53:16.186Z,4.20
2018-12-25T05:55:51.593Z,4.20
2018-12-25T05:58:26.588Z,4.30
2018-12-25T06:01:00.652Z,4.20
2018-12-25T06:03:36.383Z,4.30
2018-12-25T06:06:11.271Z,4.30
2018-12-25T06:08:46.745Z,4.30
2018-12-25T06:11:21.373Z,4.20
2018-12-25T06:13:56.942Z,4.20
2018-12-25T06:16:32.167Z,4.20
2018-12-25T06:19:06.567Z,4.20
2018-12-25T06:21:42.342Z,4.20
2018-12-25T06:24:17.631Z,4.20
2018-12-25T06:26:54.720Z,4.20
2018-12-25T06:29:30.673Z,4.20
2018-12-25T06:32:06.212Z,4.30
2018-12-25T06:34:40.840Z,4.30
2018-12-25T06:37:16.307Z,4.30
2018-12-25T06:39:52.454Z,4.30
2018-12-25T06:42:28.384Z,4.30
2018-12-25T06:45:04.570Z,4.30
2018-12-25T06:47:41.049Z,4.20
2018-12-25T06:50:17.115Z,4.20
2018-12-25T06:52:52.782Z,4.20
2018-12-25T06:55:27.265Z,4.20
2018-12-25T06:58:03.397Z,4.10
2018-12-25T07:00:39.380Z,4.20
2018-12-25T07:03:16.048Z,4.20
2018-12-25T07:06:02.860Z,4.20
2018-12-25T07:08:39.680Z,4.20
2018-12-25T07:11:16.285Z,4.20
2018-12-25T07:13:51.894Z,4.20
2018-12-25T07:16:28.267Z,4.20
2018-12-25T07:19:05.930Z,4.20
2018-12-25T07:21:42.986Z,4.20
2018-12-25T07:24:55.552Z,4.20
2018-12-25T07:27:37.110Z,4.20
2018-12-25T07:30:14.006Z,4.20
2018-12-25T07:32:49.978Z,4.20
2018-12-25T07:35:26.922Z,4.20
2018-12-25T07:38:02.432Z,4.20
2018-12-25T07:40:38.121Z,4.20
2018-12-25T07:43:13.773Z,4.20
2018-12-25T07:45:53.368Z,4.20
2018-12-25T07:48:29.108Z,4.20
2018-12-25T07:51:20.724Z,4.30
2018-12-25T07:53:55.059Z,4.20
2018-12-25T07:56:31.439Z,4.30
2018-12-25T07:59:11.857Z,4.30
2018-12-25T08:01:47.954Z,4.40
2018-12-25T08:04:25.393Z,4.30
2018-12-25T08:07:02.228Z,4.40
2018-12-25T08:09:37.879Z,4.30
2018-12-25T08:12:33.125Z,4.20
2018-12-25T08:15:10.464Z,4.30
2018-12-25T08:17:44.763Z,4.40
2018-12-25T08:20:21.261Z,4.40
2018-12-25T08:23:02.554Z,4.40
2018-12-25T08:25:35.659Z,4.50
2018-12-25T08:28:11.869Z,4.40
2018-12-25T08:30:51.072Z,4.50
2018-12-25T08:33:25.981Z,4.50
2018-12-25T08:36:00.376Z,4.50
2018-12-25T08:40:38.407Z,4.70
2018-12-25T08:43:23.284Z,4.80
2018-12-25T08:46:07.683Z,4.90
2018-12-25T08:48:54.943Z,5.00
2018-12-25T08:51:40.529Z,5.00
2018-12-25T08:54:27.193Z,5.00
2018-12-25T08:57:12.784Z,5.10
2018-12-25T09:00:02.170Z,5.10
2018-12-25T09:02:49.822Z,5.10
2018-12-25T09:05:39.300Z,5.20
2018-12-25T09:08:24.248Z,5.30
2018-12-25T09:14:15.912Z,5.30
2018-12-25T09:16:59.442Z,5.30
2018-12-25T09:19:43.320Z,5.30
2018-12-25T09:22:27.223Z,5.50
2018-12-25T09:25:11.556Z,5.50
2018-12-25T09:27:56.225Z,5.50
2018-12-25T09:33:38.555Z,5.60
2018-12-25T09:39:15.088Z,5.70
2018-12-25T09:42:00.968Z,5.70
2018-12-25T09:47:36.679Z,5.70
2018-12-25T09:50:24.114Z,5.70
2018-12-25T09:53:08.643Z,5.70
2018-12-25T09:55:52.710Z,5.80
2018-12-25T09:58:24.998Z,5.80
2018-12-25T10:01:08.426Z,5.90
2018-12-25T10:03:54.965Z,6.00
2018-12-25T10:06:39.737Z,6.10
2018-12-25T10:09:24.022Z,6.00
2018-12-25T10:12:07.780Z,6.00
2018-12-25T10:14:54.034Z,6.10
2018-12-25T10:20:29.644Z,6.00
2018-12-25T10:23:13.525Z,5.90
2018-12-25T10:25:58.425Z,6.00
2018-12-25T10:28:32.469Z,6.00
2018-12-25T10:31:17.668Z,6.00
2018-12-25T10:34:01.135Z,6.00
2018-12-25T10:36:45.447Z,6.00
2018-12-25T10:39:30.623Z,6.20
2018-12-25T10:42:17.311Z,6.30
2018-12-25T10:45:00.791Z,6.50
2018-12-25T10:47:44.135Z,6.60
2018-12-25T10:50:27.987Z,6.60
2018-12-25T10:56:06.979Z,6.50
2018-12-25T10:58:50.592Z,6.50
2018-12-25T11:01:37.061Z,6.70
2018-12-25T11:04:23.047Z,6.80
2018-12-25T11:07:10.211Z,6.80
2018-12-25T11:09:56.842Z,6.80
2018-12-25T11:12:42.166Z,6.60
2018-12-25T11:15:25.622Z,6.70
2018-12-25T11:18:10.133Z,6.60
2018-12-25T11:20:59.024Z,6.60
2018-12-25T11:23:43.149Z,6.80
2018-12-25T11:26:31.111Z,7.00
2018-12-25T11:29:15.384Z,7.80
2018-12-25T11:32:01.040Z,9.20
2018-12-25T11:34:46.537Z,8.70
2018-12-25T11:37:34.400Z,8.30
2018-12-25T11:40:23.339Z,8.00
2018-12-25T11:43:11.864Z,7.70
2018-12-25T11:51:49.770Z,7.80
2018-12-25T11:54:33.925Z,7.80
2018-12-25T11:57:20.349Z,7.70
2018-12-25T12:00:05.214Z,7.70
2018-12-25T12:02:50.803Z,7.70
2018-12-25T12:05:24.047Z,7.50
2018-12-25T12:08:13.156Z,7.60
2018-12-25T12:10:58.997Z,7.50
2018-12-25T12:16:25.349Z,7.50
2018-12-25T12:19:10.815Z,7.20
2018-12-25T12:22:15.203Z,7.20
2018-12-25T12:25:07.985Z,7.20
2018-12-25T12:27:55.550Z,7.30
2018-12-25T12:30:46.469Z,7.30
2018-12-25T12:36:40.133Z,7.60
2018-12-25T12:42:27.076Z,7.80
2018-12-25T12:45:11.690Z,7.80
2018-12-25T12:47:57.404Z,7.80
2018-12-25T12:50:41.749Z,8.10
2018-12-25T12:53:26.643Z,8.20
2018-12-25T12:56:14.617Z,8.30
2018-12-25T12:59:04.776Z,8.20
2018-12-25T13:01:51.239Z,7.90
2018-12-25T13:04:35.942Z,7.90
2018-12-25T13:07:22.831Z,7.80
2018-12-25T13:10:09.646Z,7.40
2018-12-25T13:12:55.475Z,7.40
2018-12-25T13:15:40.554Z,7.30
2018-12-25T13:18:25.294Z,7.40
2018-12-25T13:21:14.202Z,7.40
2018-12-25T13:24:00.176Z,7.40
2018-12-25T13:26:46.059Z,7.30
2018-12-25T13:32:44.650Z,7.30
2018-12-25T13:35:28.769Z,7.40
2018-12-25T13:38:13.054Z,7.30
2018-12-25T13:41:03.223Z,7.30
2018-12-25T13:43:49.380Z,7.20
2018-12-25T13:46:34.686Z,7.10
2018-12-25T13:49:19.168Z,7.10
2018-12-25T13:52:02.695Z,7.10
2018-12-25T13:54:47.183Z,6.90
2018-12-25T13:57:32.594Z,7.00
2018-12-25T14:00:17.120Z,7.10
2018-12-25T14:03:01.514Z,7.10
2018-12-25T14:08:49.803Z,6.90
2018-12-25T14:11:33.691Z,6.90
2018-12-25T14:17:09.698Z,6.80
2018-12-25T14:19:57.372Z,6.70
2018-12-25T14:22:40.883Z,6.70
2018-12-25T14:25:24.815Z,6.70
2018-12-25T14:27:58.266Z,6.70
2018-12-25T14:30:49.518Z,6.60
2018-12-25T14:33:34.521Z,6.60
2018-12-25T14:36:18.438Z,6.50
2018-12-25T14:39:02.532Z,6.50
2018-12-25T14:41:46.911Z,6.40
2018-12-25T14:47:38.832Z,6.30
2018-12-25T14:50:23.228Z,6.30
2018-12-25T14:53:06.887Z,6.30
2018-12-25T14:55:51.022Z,6.30
2018-12-25T15:01:28.794Z,6.30
2018-12-25T15:04:15.744Z,6.20
2018-12-25T15:06:59.987Z,6.20
2018-12-25T15:09:44.325Z,6.20
2018-12-25T15:15:37.762Z,6.00
2018-12-25T15:21:23.799Z,5.90
2018-12-25T15:24:08.293Z,5.90
2018-12-25T15:26:52.639Z,5.80
2018-12-25T15:29:38.485Z,5.90
2018-12-25T15:32:22.038Z,5.90
2018-12-25T15:35:09.933Z,5.80
2018-12-25T15:37:58.670Z,5.90
2018-12-25T15:40:43.707Z,5.90
2018-12-25T15:43:28.636Z,5.90
2018-12-25T15:46:12.095Z,5.80
2018-12-25T15:48:57.849Z,5.80
2018-12-25T15:51:41.998Z,5.80
2018-12-25T15:54:26.611Z,5.70
2018-12-25T15:57:40.015Z,5.60
2018-12-25T16:00:08.677Z,5.70
2018-12-25T16:02:56.407Z,5.60
2018-12-25T16:05:42.404Z,5.70
2018-12-25T16:08:26.208Z,5.70
2018-12-25T16:11:13.097Z,5.60
2018-12-25T16:14:01.963Z,5.70
2018-12-25T16:16:49.142Z,5.70
2018-12-25T16:19:40.006Z,5.70
2018-12-25T16:22:24.271Z,5.70
2018-12-25T16:25:07.484Z,5.60
2018-12-25T16:27:51.371Z,5.60
2018-12-25T16:30:36.981Z,5.60
2018-12-25T16:33:21.468Z,5.50
2018-12-25T16:36:11.055Z,5.60
2018-12-25T16:38:56.145Z,5.50
2018-12-25T16:41:40.934Z,5.50
2018-12-25T16:44:28.665Z,5.50
2018-12-25T16:47:20.360Z,5.50
2018-12-25T16:50:04.704Z,5.50
2018-12-25T16:52:48.442Z,5.50
2018-12-25T16:55:32.226Z,5.40
2018-12-25T16:58:16.657Z,5.40
2018-12-25T17:01:01.251Z,5.40
2018-12-25T17:06:32.170Z,5.40
2018-12-25T17:09:16.020Z,5.40
2018-12-25T17:12:00.381Z,5.40
2018-12-25T17:14:44.274Z,5.30
2018-12-25T17:17:33.786Z,5.30
2018-12-25T17:20:21.576Z,5.30
2018-12-25T17:22:54.071Z,5.30
2018-12-25T17:25:39.708Z,5.30
2018-12-25T17:28:27.772Z,5.30
2018-12-25T17:31:10.809Z,5.30
2018-12-25T17:33:55.074Z,5.20
2018-12-25T17:36:42.420Z,5.20
2018-12-25T17:39:26.705Z,5.20
2018-12-25T17:42:11.383Z,5.10
2018-12-25T17:44:55.194Z,5.10
2018-12-25T17:47:38.922Z,5.10
2018-12-25T17:50:22.563Z,5.10
2018-12-25T17:53:06.866Z,5.10
2018-12-25T17:55:50.049Z,5.10
2018-12-25T17:58:43.382Z,5.10
2018-12-25T18:01:31.546Z,5.20
2018-12-25T18:04:16.904Z,5.10
2018-12-25T18:07:01.543Z,5.00
2018-12-25T18:09:34.820Z,5.00
2018-12-25T18:12:26.600Z,5.00
2018-12-25T18:15:10.921Z,5.00
2018-12-25T18:17:58.666Z,5.00
2018-12-25T18:20:31.652Z,4.90
2018-12-25T18:23:05.438Z,5.00
2018-12-25T18:25:58.649Z,4.90
2018-12-25T18:28:43.082Z,4.90
2018-12-25T18:31:29.856Z,4.80
2018-12-25T18:34:16.045Z,4.80
2018-12-25T18:37:02.613Z,4.90
2018-12-25T18:39:47.907Z,4.80
2018-12-25T18:42:36.534Z,4.70
2018-12-25T18:45:21.337Z,4.70
2018-12-25T18:48:05.760Z,4.70
2018-12-25T18:53:39.091Z,4.60
2018-12-25T18:56:25.583Z,4.60
2018-12-25T18:59:11.226Z,4.50
2018-12-25T19:01:55.920Z,4.60
2018-12-25T19:04:44.037Z,4.50
2018-12-25T19:07:18.578Z,4.50
2018-12-25T19:10:05.579Z,4.40
2018-12-25T19:12:56.220Z,4.30
2018-12-25T19:15:41.238Z,4.40
2018-12-25T19:18:25.460Z,4.30
2018-12-25T19:21:11.591Z,4.20
2018-12-25T19:23:56.325Z,4.10
2018-12-25T19:26:41.555Z,4.00
2018-12-25T19:29:26.321Z,3.90
2018-12-25T19:32:08.923Z,3.80
2018-12-25T19:34:55.648Z,3.60
2018-12-25T19:37:42.633Z,3.50
2018-12-25T19:40:27.895Z,3.40
2018-12-25T19:43:12.286Z,3.30
2018-12-25T19:45:56.856Z,3.20
2018-12-25T19:48:41.909Z,3.20
2018-12-25T19:51:27.231Z,3.10
2018-12-25T19:56:59.378Z,2.80
2018-12-25T19:59:34.088Z,2.50
2018-12-25T20:02:19.202Z,2.30
2018-12-25T20:05:03.631Z,2.10
2018-12-25T20:10:36.084Z,1.80
2018-12-25T20:13:21.439Z,1.80
2018-12-25T20:16:07.997Z,1.80
2018-12-25T20:18:56.461Z,1.80
2018-12-25T20:21:41.343Z,1.80
2018-12-25T20:24:26.201Z,1.90
2018-12-25T20:27:10.651Z,1.80
2018-12-25T20:29:56.719Z,1.80
2018-12-25T20:32:42.125Z,2.00
2018-12-25T20:35:26.811Z,1.80
2018-12-25T20:38:11.773Z,1.70
2018-12-25T20:40:57.336Z,1.60
2018-12-25T20:43:41.625Z,1.70
2018-12-25T20:49:19.528Z,1.60
2018-12-25T20:57:54.587Z,1.80
2018-12-25T21:01:06.628Z,1.90
2018-12-25T21:04:18.433Z,1.80
2018-12-25T21:07:03.953Z,1.50
2018-12-25T21:09:49.695Z,1.30
2018-12-25T21:12:35.413Z,1.00
2018-12-25T21:15:21.563Z,0.80
2018-12-25T21:18:12.616Z,0.50
2018-12-25T21:20:58.947Z,0.40
2018-12-25T21:23:44.091Z,0.50
2018-12-25T21:29:32.040Z,0.40
2018-12-25T21:32:19.245Z,0.00
2018-12-25T21:35:05.548Z,-0.40
2018-12-25T21:37:52.227Z,-0.60
2018-12-25T21:40:41.862Z,-0.70
2018-12-25T21:43:28.292Z,-0.60
2018-12-25T21:46:14.973Z,-0.40
2018-12-25T21:49:25.483Z,-0.50
2018-12-25T21:52:10.980Z,-0.60
2018-12-25T21:54:57.618Z,-0.60
2018-12-25T21:57:46.731Z,-0.70
2018-12-25T22:00:32.638Z,-0.60
2018-12-25T22:03:18.717Z,-0.60
2018-12-25T22:06:05.169Z,-0.60
2018-12-25T22:11:45.987Z,-0.20
2018-12-25T22:14:33.797Z,-0.20
2018-12-25T22:17:20.436Z,-0.10
2018-12-25T22:20:03.904Z,-0.10
2018-12-25T22:22:52.182Z,0.00
2018-12-25T22:25:38.304Z,0.00
2018-12-25T22:28:27.218Z,-0.10
2018-12-25T22:31:14.018Z,-0.20
2018-12-25T22:34:04.942Z,-0.20
2018-12-25T22:36:51.242Z,-0.10
2018-12-25T22:39:37.205Z,0.00
2018-12-25T22:42:28.303Z,0.00
2018-12-25T22:48:18.823Z,-0.20
2018-12-25T22:51:05.201Z,-0.40
2018-12-25T22:53:56.179Z,-0.40
2018-12-25T22:57:02.404Z,-0.40
2018-12-25T23:02:44.365Z,-0.40
2018-12-25T23:05:35.127Z,-0.50
2018-12-25T23:11:13.829Z,-0.40
2018-12-25T23:16:49.029Z,-0.70
2018-12-25T23:19:38.540Z,-0.90
2018-12-25T23:25:16.737Z,-1.10
2018-12-25T23:28:03.281Z,-1.10
2018-12-25T23:30:51.086Z,-1.10
2018-12-25T23:33:37.028Z,-1.20
2018-12-25T23:39:38.375Z,-1.30
2018-12-25T23:48:17.372Z,-1.50
2018-12-25T23:53:49.728Z,-1.40
2018-12-25T23:56:36.132Z,-1.50
